createdAt,value
2023-05-02T00:02:14.341Z,99.90
2023-05-02T00:04:42.732Z,99.90
2023-05-02T00:07:11.783Z,99.90
2023-05-02T00:09:39.868Z,99.90
2023-05-02T00:12:09.157Z,99.90
2023-05-02T00:14:37.119Z,99.90
2023-05-02T00:17:05.110Z,99.90
2023-05-02T00:19:33.069Z,99.90
2023-05-02T00:22:01.296Z,99.90
2023-05-02T00:24:29.240Z,99.90
2023-05-02T00:26:57.172Z,99.90
2023-05-02T00:29:26.491Z,99.90
2023-05-02T00:31:54.389Z,99.90
2023-05-02T00:34:22.338Z,99.90
2023-05-02T00:36:50.267Z,99.90
2023-05-02T00:39:18.208Z,99.90
2023-05-02T00:41:46.135Z,99.90
2023-05-02T00:44:14.128Z,99.90
2023-05-02T00:46:43.495Z,99.90
2023-05-02T00:49:11.451Z,99.90
2023-05-02T00:51:39.754Z,99.90
2023-05-02T00:54:07.914Z,99.90
2023-05-02T00:56:35.909Z,99.90
2023-05-02T00:59:05.065Z,99.90
2023-05-02T01:01:41.358Z,99.90
2023-05-02T01:04:24.694Z,99.90
2023-05-02T01:07:03.659Z,99.90
2023-05-02T01:09:41.301Z,99.90
2023-05-02T01:12:17.228Z,99.90
2023-05-02T01:14:48.359Z,99.90
2023-05-02T01:17:17.984Z,99.90
2023-05-02T01:19:52.817Z,99.90
2023-05-02T01:22:22.082Z,99.90
2023-05-02T01:25:01.716Z,99.90
2023-05-02T01:27:41.660Z,99.90
2023-05-02T01:30:14.382Z,99.90
2023-05-02T01:32:47.169Z,99.90
2023-05-02T01:35:17.013Z,99.90
2023-05-02T01:37:47.854Z,99.90
2023-05-02T01:40:19.483Z,99.90
2023-05-02T01:42:49.347Z,99.90
2023-05-02T01:45:20.905Z,99.90
2023-05-02T01:47:49.864Z,99.90
2023-05-02T01:50:21.330Z,99.90
2023-05-02T01:52:52.362Z,99.90
2023-05-02T01:55:21.275Z,99.90
2023-05-02T01:57:51.511Z,99.90
2023-05-02T02:00:21.906Z,99.90
2023-05-02T02:02:52.003Z,99.90
2023-05-02T02:05:20.947Z,99.90
2023-05-02T02:07:48.961Z,99.90
2023-05-02T02:10:17.585Z,99.90
2023-05-02T02:12:53.304Z,99.90
2023-05-02T02:15:28.804Z,99.90
2023-05-02T02:18:00.889Z,99.90
2023-05-02T02:20:30.481Z,99.90
2023-05-02T02:22:59.881Z,99.90
2023-05-02T02:25:28.531Z,99.90
2023-05-02T02:27:57.059Z,99.90
2023-05-02T02:30:26.547Z,99.90
2023-05-02T02:32:54.525Z,99.90
2023-05-02T02:35:23.753Z,99.90
2023-05-02T02:38:00.082Z,99.90
2023-05-02T02:40:32.534Z,99.90
2023-05-02T02:43:09.170Z,99.90
2023-05-02T02:45:45.446Z,99.90
2023-05-02T02:48:20.986Z,99.90
2023-05-02T02:51:00.642Z,99.90
2023-05-02T02:53:35.646Z,99.90
2023-05-02T02:56:07.036Z,99.90
2023-05-02T02:58:46.880Z,99.90
2023-05-02T03:01:21.314Z,99.90
2023-05-02T03:03:50.643Z,99.90
2023-05-02T03:06:19.931Z,99.90
2023-05-02T03:08:47.984Z,99.90
2023-05-02T03:11:16.400Z,99.90
2023-05-02T03:13:44.396Z,99.90
2023-05-02T03:16:34.886Z,99.90
2023-05-02T03:19:03.099Z,99.90
2023-05-02T03:21:31.624Z,99.90
2023-05-02T03:24:00.718Z,99.90
2023-05-02T03:26:29.137Z,99.90
2023-05-02T03:28:57.599Z,99.90
2023-05-02T03:31:26.624Z,99.90
2023-05-02T03:33:56.471Z,99.90
2023-05-02T03:36:24.391Z,99.90
2023-05-02T03:38:52.320Z,99.90
2023-05-02T03:41:20.954Z,99.90
2023-05-02T03:43:48.935Z,99.90
2023-05-02T03:46:16.897Z,99.90
2023-05-02T03:48:46.490Z,99.90
2023-05-02T03:51:15.873Z,99.90
2023-05-02T03:53:43.853Z,99.90
2023-05-02T03:56:11.855Z,99.90
2023-05-02T03:58:39.776Z,99.90
2023-05-02T04:01:15.050Z,99.90
2023-05-02T04:03:43.273Z,99.90
2023-05-02T04:06:13.076Z,99.90
2023-05-02T04:08:42.536Z,99.90
2023-05-02T04:11:10.445Z,99.90
2023-05-02T04:13:38.412Z,99.90
2023-05-02T04:16:07.124Z,99.90
2023-05-02T04:18:35.130Z,99.90
2023-05-02T04:21:03.199Z,99.90
2023-05-02T04:23:31.175Z,99.90
2023-05-02T04:26:00.419Z,99.90
2023-05-02T04:28:42.933Z,99.90
2023-05-02T04:31:11.916Z,99.90
2023-05-02T04:33:39.957Z,99.90
2023-05-02T04:36:10.452Z,99.90
2023-05-02T04:38:38.493Z,99.90
2023-05-02T04:41:09.754Z,99.90
2023-05-02T04:43:38.112Z,99.90
2023-05-02T04:46:06.267Z,99.90
2023-05-02T04:48:34.637Z,99.90
2023-05-02T04:51:02.572Z,99.90
2023-05-02T04:53:30.504Z,99.90
2023-05-02T04:55:58.865Z,99.90
2023-05-02T04:58:28.205Z,99.90
2023-05-02T05:00:56.304Z,99.90
2023-05-02T05:03:24.715Z,99.90
2023-05-02T05:05:52.751Z,99.90
2023-05-02T05:08:20.707Z,99.90
2023-05-02T05:10:48.646Z,99.90
2023-05-02T05:13:16.576Z,99.90
2023-05-02T05:15:46.008Z,99.90
2023-05-02T05:18:14.043Z,99.90
2023-05-02T05:20:42.123Z,99.90
2023-05-02T05:23:10.124Z,99.90
2023-05-02T05:25:38.068Z,99.90
2023-05-02T05:28:06.034Z,99.90
2023-05-02T05:30:33.973Z,99.90
2023-05-02T05:33:03.366Z,99.90
2023-05-02T05:35:32.114Z,99.90
2023-05-02T05:38:00.163Z,99.90
2023-05-02T05:40:28.172Z,99.90
2023-05-02T05:42:56.268Z,99.90
2023-05-02T05:45:24.265Z,99.90
2023-05-02T05:47:52.492Z,99.90
2023-05-02T05:50:21.859Z,99.90
2023-05-02T05:52:49.763Z,99.90
2023-05-02T05:55:17.872Z,99.90
2023-05-02T05:57:45.830Z,99.90
2023-05-02T06:00:15.116Z,99.90
2023-05-02T06:02:43.186Z,99.90
2023-05-02T06:05:11.416Z,99.90
2023-05-02T06:07:40.867Z,99.90
2023-05-02T06:10:09.916Z,99.90
2023-05-02T06:12:37.889Z,99.90
2023-05-02T06:15:06.734Z,99.90
2023-05-02T06:17:34.704Z,99.90
2023-05-02T06:20:03.028Z,99.90
2023-05-02T06:22:31.152Z,99.90
2023-05-02T06:25:00.906Z,99.90
2023-05-02T06:27:28.936Z,99.90
2023-05-02T06:29:57.165Z,99.90
2023-05-02T06:32:25.303Z,99.90
2023-05-02T06:34:53.381Z,99.90
2023-05-02T06:37:21.896Z,99.90
2023-05-02T06:39:49.925Z,99.90
2023-05-02T06:42:19.280Z,99.90
2023-05-02T06:44:47.254Z,99.90
2023-05-02T06:47:15.446Z,99.90
2023-05-02T06:49:43.491Z,99.90
2023-05-02T06:52:11.492Z,99.90
2023-05-02T06:54:39.972Z,99.90
2023-05-02T06:57:08.064Z,99.90
2023-05-02T06:59:37.383Z,99.90
2023-05-02T07:02:05.663Z,99.90
2023-05-02T07:04:33.822Z,99.90
2023-05-02T07:07:01.873Z,99.90
2023-05-02T07:09:29.809Z,99.90
2023-05-02T07:11:57.769Z,99.90
2023-05-02T07:14:25.724Z,99.90
2023-05-02T07:16:55.273Z,99.90
2023-05-02T07:19:23.318Z,99.90
2023-05-02T07:21:51.349Z,99.90
2023-05-02T07:24:19.349Z,99.90
2023-05-02T07:26:47.287Z,99.90
2023-05-02T07:29:15.317Z,99.90
2023-05-02T07:31:43.365Z,99.90
2023-05-02T07:34:12.721Z,99.90
2023-05-02T07:36:40.832Z,99.90
2023-05-02T07:39:08.768Z,99.90
2023-05-02T07:41:36.740Z,99.90
2023-05-02T07:44:04.776Z,99.90
2023-05-02T07:46:32.853Z,99.90
2023-05-02T07:49:00.916Z,99.90
2023-05-02T07:51:30.387Z,99.90
2023-05-02T07:53:58.992Z,99.90
2023-05-02T07:56:27.034Z,99.90
2023-05-02T07:58:55.163Z,99.90
2023-05-02T08:01:23.104Z,99.90
2023-05-02T08:03:51.786Z,99.90
2023-05-02T08:06:19.940Z,99.90
2023-05-02T08:08:49.317Z,99.90
2023-05-02T08:11:17.327Z,99.90
2023-05-02T08:13:45.273Z,99.90
2023-05-02T08:16:13.276Z,99.90
2023-05-02T08:18:41.377Z,99.90
2023-05-02T08:21:09.616Z,99.90
2023-05-02T08:23:38.490Z,99.90
2023-05-02T08:26:07.845Z,99.90
2023-05-02T08:28:35.878Z,99.90
2023-05-02T08:31:03.959Z,99.90
2023-05-02T08:33:31.953Z,99.90
2023-05-02T08:36:00.306Z,99.90
2023-05-02T08:38:28.354Z,99.90
2023-05-02T08:40:56.330Z,99.90
2023-05-02T08:43:25.729Z,99.90
2023-05-02T08:45:57.004Z,99.90
2023-05-02T08:48:25.929Z,99.90
2023-05-02T08:50:54.959Z,99.90
2023-05-02T08:53:24.314Z,99.90
2023-05-02T08:55:52.473Z,95.90
2023-05-02T08:58:20.506Z,94.60
2023-05-02T09:00:52.143Z,94.00
2023-05-02T09:03:29.953Z,91.40
2023-05-02T09:06:06.021Z,91.00
2023-05-02T09:08:34.402Z,89.70
2023-05-02T09:11:03.430Z,83.50
2023-05-02T09:13:33.370Z,83.80
2023-05-02T09:16:04.135Z,83.20
2023-05-02T09:18:34.485Z,82.60
2023-05-02T09:21:06.423Z,81.00
2023-05-02T09:23:39.682Z,81.80
2023-05-02T09:26:15.453Z,78.50
2023-05-02T09:28:45.205Z,76.70
2023-05-02T09:31:23.006Z,73.50
2023-05-02T09:34:09.917Z,70.30
2023-05-02T09:36:41.747Z,69.30
2023-05-02T09:39:11.472Z,72.40
2023-05-02T09:41:42.956Z,73.70
2023-05-02T09:44:12.109Z,72.70
2023-05-02T09:46:45.155Z,73.40
2023-05-02T09:49:14.666Z,73.10
2023-05-02T09:51:44.110Z,61.00
2023-05-02T09:54:12.378Z,60.40
2023-05-02T09:56:57.370Z,53.60
2023-05-02T09:59:26.221Z,48.30
2023-05-02T10:02:00.241Z,54.50
2023-05-02T10:04:29.797Z,58.70
2023-05-02T10:06:58.720Z,54.60
2023-05-02T10:09:28.251Z,53.40
2023-05-02T10:11:57.907Z,55.00
2023-05-02T10:14:29.495Z,53.10
2023-05-02T10:17:02.936Z,52.80
2023-05-02T10:19:34.616Z,52.90
2023-05-02T10:22:04.011Z,45.10
2023-05-02T10:24:33.609Z,47.60
2023-05-02T10:27:02.113Z,46.60
2023-05-02T10:29:30.696Z,47.70
2023-05-02T10:31:59.423Z,46.00
2023-05-02T10:34:29.109Z,49.60
2023-05-02T10:37:01.244Z,49.50
2023-05-02T10:39:29.547Z,45.90
2023-05-02T10:42:00.011Z,48.20
2023-05-02T10:44:34.776Z,52.20
2023-05-02T10:47:03.318Z,54.30
2023-05-02T10:49:32.780Z,57.10
2023-05-02T10:52:00.738Z,53.10
2023-05-02T10:54:28.685Z,52.00
2023-05-02T10:57:09.479Z,50.40
2023-05-02T10:59:38.664Z,49.70
2023-05-02T11:02:28.244Z,49.00
2023-05-02T11:05:05.386Z,48.90
2023-05-02T11:07:34.898Z,48.40
2023-05-02T11:10:28.412Z,53.20
2023-05-02T11:12:57.587Z,49.10
2023-05-02T11:15:55.469Z,46.50
2023-05-02T11:18:23.487Z,46.20
2023-05-02T11:20:52.965Z,48.50
2023-05-02T11:23:25.847Z,45.20
2023-05-02T11:25:56.383Z,35.80
2023-05-02T11:28:47.656Z,36.90
2023-05-02T11:31:54.558Z,36.60
2023-05-02T11:34:23.161Z,30.00
2023-05-02T11:36:52.480Z,29.00
2023-05-02T11:39:21.656Z,31.30
2023-05-02T11:41:51.072Z,35.20
2023-05-02T11:44:19.165Z,35.90
2023-05-02T11:46:47.580Z,35.30
2023-05-02T11:49:15.732Z,35.70
2023-05-02T11:51:43.793Z,39.20
2023-05-02T11:54:19.685Z,45.80
2023-05-02T11:56:48.661Z,52.00
2023-05-02T11:59:16.688Z,54.60
2023-05-02T12:01:49.537Z,51.10
2023-05-02T12:04:21.887Z,49.40
2023-05-02T12:06:56.963Z,52.20
2023-05-02T12:09:26.412Z,45.40
2023-05-02T12:11:54.866Z,44.20
2023-05-02T12:14:29.889Z,40.10
2023-05-02T12:16:59.393Z,41.60
2023-05-02T12:19:28.343Z,43.80
2023-05-02T12:21:56.377Z,49.20
2023-05-02T12:24:25.844Z,50.80
2023-05-02T12:27:12.217Z,52.60
2023-05-02T12:29:41.760Z,51.30
2023-05-02T12:32:09.863Z,50.80
2023-05-02T12:34:38.870Z,48.50
2023-05-02T12:37:08.131Z,50.80
2023-05-02T12:39:38.434Z,50.00
2023-05-02T12:42:13.478Z,50.50
2023-05-02T12:44:42.444Z,52.40
2023-05-02T12:47:11.902Z,53.10
2023-05-02T12:49:52.827Z,50.40
2023-05-02T12:52:21.429Z,51.10
2023-05-02T12:54:50.851Z,49.50
2023-05-02T12:57:25.910Z,49.80
2023-05-02T12:59:55.122Z,47.00
2023-05-02T13:02:23.707Z,45.10
2023-05-02T13:04:52.213Z,47.40
2023-05-02T13:07:20.163Z,44.50
2023-05-02T13:09:48.145Z,45.20
2023-05-02T13:12:18.165Z,45.40
2023-05-02T13:14:46.230Z,45.40
2023-05-02T13:17:14.456Z,42.80
2023-05-02T13:19:50.423Z,41.60
2023-05-02T13:22:22.228Z,35.90
2023-05-02T13:24:50.281Z,38.20
2023-05-02T13:27:19.753Z,38.50
2023-05-02T13:29:47.715Z,39.10
2023-05-02T13:32:15.675Z,34.90
2023-05-02T13:34:44.273Z,34.00
2023-05-02T13:37:12.297Z,36.20
2023-05-02T13:39:40.358Z,39.70
2023-05-02T13:42:08.569Z,41.30
2023-05-02T13:44:37.902Z,41.20
2023-05-02T13:47:05.875Z,39.50
2023-05-02T13:49:33.811Z,42.80
2023-05-02T13:52:01.805Z,41.80
2023-05-02T13:54:29.775Z,40.50
2023-05-02T13:56:57.731Z,40.70
2023-05-02T13:59:25.717Z,33.60
2023-05-02T14:01:55.051Z,31.60
2023-05-02T14:04:23.773Z,34.30
2023-05-02T14:06:51.776Z,35.00
2023-05-02T14:09:20.674Z,32.00
2023-05-02T14:11:49.132Z,34.90
2023-05-02T14:14:17.251Z,36.80
2023-05-02T14:16:45.279Z,36.70
2023-05-02T14:19:14.595Z,37.80
2023-05-02T14:21:42.583Z,40.10
2023-05-02T14:24:12.328Z,43.20
2023-05-02T14:26:40.269Z,41.70
2023-05-02T14:29:08.596Z,43.40
2023-05-02T14:31:36.858Z,39.80
2023-05-02T14:34:06.453Z,37.70
2023-05-02T14:36:37.470Z,36.60
2023-05-02T14:39:05.430Z,36.30
2023-05-02T14:41:33.384Z,31.50
2023-05-02T14:44:01.350Z,28.10
2023-05-02T14:46:29.325Z,28.10
2023-05-02T14:48:58.056Z,31.20
2023-05-02T14:51:26.482Z,31.70
2023-05-02T14:53:55.904Z,30.60
2023-05-02T14:56:24.271Z,29.40
2023-05-02T14:58:52.306Z,28.10
2023-05-02T15:01:21.594Z,27.00
2023-05-02T15:04:04.999Z,27.70
2023-05-02T15:06:34.956Z,29.40
2023-05-02T15:09:04.920Z,33.20
2023-05-02T15:11:33.136Z,32.30
2023-05-02T15:14:01.127Z,33.90
2023-05-02T15:16:29.867Z,33.90
2023-05-02T15:18:58.009Z,30.90
2023-05-02T15:21:26.037Z,26.60
2023-05-02T15:23:53.967Z,28.10
2023-05-02T15:26:24.337Z,27.40
2023-05-02T15:28:52.350Z,28.90
2023-05-02T15:31:20.398Z,27.30
2023-05-02T15:33:48.379Z,27.70
2023-05-02T15:36:17.031Z,27.50
2023-05-02T15:38:45.037Z,27.90
2023-05-02T15:41:12.988Z,28.10
2023-05-02T15:43:42.330Z,24.60
2023-05-02T15:46:11.174Z,25.40
2023-05-02T15:48:39.180Z,24.90
2023-05-02T15:51:09.143Z,26.70
2023-05-02T15:53:39.578Z,28.10
2023-05-02T15:56:09.426Z,26.30
2023-05-02T15:58:37.573Z,27.50
2023-05-02T16:01:07.283Z,27.00
2023-05-02T16:03:35.429Z,28.20
2023-05-02T16:06:05.570Z,26.10
2023-05-02T16:08:33.619Z,25.80
2023-05-02T16:11:01.931Z,25.00
2023-05-02T16:13:29.920Z,24.00
2023-05-02T16:15:58.017Z,24.30
2023-05-02T16:18:28.889Z,24.70
2023-05-02T16:20:57.120Z,23.50
2023-05-02T16:23:25.988Z,23.20
2023-05-02T16:25:58.536Z,24.50
2023-05-02T16:28:26.724Z,25.00
2023-05-02T16:30:54.786Z,24.40
2023-05-02T16:33:22.982Z,24.20
2023-05-02T16:36:01.344Z,24.30
2023-05-02T16:38:29.321Z,23.50
2023-05-02T16:40:57.450Z,21.80
2023-05-02T16:43:26.028Z,22.10
2023-05-02T16:46:01.401Z,22.40
2023-05-02T16:48:29.569Z,22.90
2023-05-02T16:50:58.921Z,23.10
2023-05-02T16:53:27.026Z,22.70
2023-05-02T16:55:56.867Z,21.90
2023-05-02T16:58:25.152Z,20.40
2023-05-02T17:00:53.177Z,20.70
2023-05-02T17:03:21.183Z,17.60
2023-05-02T17:05:49.185Z,19.20
2023-05-02T17:08:18.461Z,19.30
2023-05-02T17:10:50.381Z,19.20
2023-05-02T17:13:18.560Z,19.80
2023-05-02T17:15:46.553Z,19.10
2023-05-02T17:18:14.722Z,19.30
2023-05-02T17:20:42.729Z,21.00
2023-05-02T17:23:11.023Z,21.60
2023-05-02T17:25:41.667Z,20.80
2023-05-02T17:28:09.713Z,21.10
2023-05-02T17:30:37.779Z,20.50
2023-05-02T17:33:06.054Z,21.60
2023-05-02T17:35:34.392Z,20.30
2023-05-02T17:38:02.413Z,21.90
2023-05-02T17:40:30.437Z,21.30
2023-05-02T17:42:59.780Z,21.90
2023-05-02T17:45:29.856Z,23.40
2023-05-02T17:47:57.915Z,24.60
2023-05-02T17:50:26.208Z,26.80
2023-05-02T17:52:54.421Z,27.10
2023-05-02T17:55:22.390Z,27.40
2023-05-02T17:57:50.364Z,27.90
2023-05-02T18:00:20.387Z,29.40
2023-05-02T18:02:48.402Z,30.10
2023-05-02T18:05:17.468Z,30.60
2023-05-02T18:07:45.508Z,31.50
2023-05-02T18:10:13.548Z,32.30
2023-05-02T18:12:41.987Z,32.10
2023-05-02T18:15:11.272Z,31.80
2023-05-02T18:17:40.623Z,32.40
2023-05-02T18:20:10.152Z,32.90
2023-05-02T18:22:38.306Z,32.70
2023-05-02T18:25:07.335Z,33.10
2023-05-02T18:27:35.644Z,33.40
2023-05-02T18:30:03.885Z,35.20
2023-05-02T18:32:34.400Z,36.50
2023-05-02T18:35:04.448Z,41.20
2023-05-02T18:37:32.543Z,42.80
2023-05-02T18:40:00.695Z,43.30
2023-05-02T18:42:28.933Z,43.80
2023-05-02T18:45:00.521Z,44.50
2023-05-02T18:47:31.079Z,45.60
2023-05-02T18:49:59.791Z,47.10
2023-05-02T18:52:30.578Z,47.50
2023-05-02T18:54:58.664Z,48.40
2023-05-02T18:57:26.846Z,48.70
2023-05-02T18:59:54.893Z,49.40
2023-05-02T19:02:22.974Z,50.00
2023-05-02T19:04:51.002Z,50.10
2023-05-02T19:07:19.152Z,54.60
2023-05-02T19:09:48.457Z,59.40
2023-05-02T19:12:16.422Z,61.70
2023-05-02T19:14:44.783Z,65.60
2023-05-02T19:17:12.752Z,67.60
2023-05-02T19:19:41.720Z,68.00
2023-05-02T19:22:09.742Z,68.10
2023-05-02T19:24:37.740Z,67.20
2023-05-02T19:27:09.704Z,66.50
2023-05-02T19:29:37.841Z,65.00
2023-05-02T19:32:06.502Z,64.90
2023-05-02T19:34:36.190Z,64.70
2023-05-02T19:37:04.454Z,64.60
2023-05-02T19:39:32.655Z,65.40
2023-05-02T19:42:00.612Z,64.70
2023-05-02T19:44:29.959Z,65.20
2023-05-02T19:46:57.908Z,65.10
2023-05-02T19:49:25.971Z,65.20
2023-05-02T19:51:53.881Z,65.90
2023-05-02T19:54:21.884Z,66.70
2023-05-02T19:56:49.921Z,67.80
2023-05-02T19:59:17.864Z,69.90
2023-05-02T20:01:47.446Z,74.60
2023-05-02T20:04:15.413Z,79.20
2023-05-02T20:06:43.663Z,82.30
2023-05-02T20:09:12.253Z,83.10
2023-05-02T20:11:40.177Z,86.00
2023-05-02T20:14:08.205Z,89.80
2023-05-02T20:16:36.266Z,90.40
2023-05-02T20:19:05.671Z,90.70
2023-05-02T20:21:33.658Z,91.40
2023-05-02T20:24:01.576Z,92.40
2023-05-02T20:26:31.289Z,93.20
2023-05-02T20:28:59.609Z,92.70
2023-05-02T20:31:27.729Z,92.80
2023-05-02T20:33:55.843Z,92.70
2023-05-02T20:36:25.871Z,93.20
2023-05-02T20:38:53.883Z,93.00
2023-05-02T20:41:23.833Z,93.10
2023-05-02T20:43:51.876Z,92.40
2023-05-02T20:46:20.814Z,92.60
2023-05-02T20:48:49.070Z,92.70
2023-05-02T20:51:17.141Z,93.30
2023-05-02T20:53:46.438Z,93.90
2023-05-02T20:56:14.417Z,93.60
2023-05-02T20:58:42.466Z,93.60
2023-05-02T21:01:10.715Z,93.90
2023-05-02T21:03:41.179Z,95.10
2023-05-02T21:06:09.369Z,96.10
2023-05-02T21:08:37.405Z,95.90
2023-05-02T21:11:14.708Z,96.00
2023-05-02T21:13:43.019Z,96.30
2023-05-02T21:16:20.688Z,97.30
2023-05-02T21:18:49.360Z,97.80
2023-05-02T21:21:17.371Z,98.80
2023-05-02T21:23:45.551Z,98.60
2023-05-02T21:26:14.869Z,99.30
2023-05-02T21:28:42.952Z,99.30
2023-05-02T21:31:11.654Z,99.50
2023-05-02T21:33:39.724Z,99.30
2023-05-02T21:36:08.277Z,99.90
2023-05-02T21:38:36.252Z,99.90
2023-05-02T21:41:05.994Z,99.90
2023-05-02T21:43:39.266Z,99.90
2023-05-02T21:46:07.484Z,99.90
2023-05-02T21:48:35.620Z,99.90
2023-05-02T21:51:08.189Z,99.90
2023-05-02T21:53:36.484Z,99.90
2023-05-02T21:56:04.697Z,99.90
2023-05-02T21:58:32.682Z,99.90
2023-05-02T22:01:02.178Z,99.90
2023-05-02T22:03:31.037Z,99.90
2023-05-02T22:06:04.849Z,99.90
2023-05-02T22:08:33.283Z,99.90
2023-05-02T22:11:01.640Z,99.90
2023-05-02T22:13:29.730Z,99.90
2023-05-02T22:15:57.724Z,99.90
2023-05-02T22:18:27.054Z,99.90
2023-05-02T22:20:57.221Z,99.90
2023-05-02T22:23:25.351Z,99.90
2023-05-02T22:25:53.442Z,99.90
2023-05-02T22:28:21.664Z,99.90
2023-05-02T22:30:49.732Z,99.90
2023-05-02T22:33:17.737Z,99.90
2023-05-02T22:35:47.058Z,99.90
2023-05-02T22:38:17.050Z,99.90
2023-05-02T22:40:45.038Z,99.90
2023-05-02T22:43:13.004Z,99.90
2023-05-02T22:45:40.995Z,99.90
2023-05-02T22:48:09.181Z,99.90
2023-05-02T22:50:37.536Z,99.90
2023-05-02T22:53:09.433Z,99.90
2023-05-02T22:55:38.351Z,99.90
2023-05-02T22:58:06.393Z,99.90
2023-05-02T23:00:34.623Z,99.90
2023-05-02T23:03:02.777Z,99.90
2023-05-02T23:05:30.808Z,99.90
2023-05-02T23:07:58.990Z,99.90
2023-05-02T23:10:28.490Z,99.90
2023-05-02T23:12:56.648Z,99.90
2023-05-02T23:15:24.658Z,99.90
2023-05-02T23:17:52.669Z,99.90
2023-05-02T23:20:22.766Z,99.90
2023-05-02T23:22:51.271Z,99.90
2023-05-02T23:25:20.814Z,99.90
2023-05-02T23:27:50.153Z,99.90
2023-05-02T23:30:18.300Z,99.90
2023-05-02T23:32:46.990Z,99.90
2023-05-02T23:35:15.622Z,99.90
2023-05-02T23:37:44.145Z,99.90
2023-05-02T23:40:12.485Z,99.90
2023-05-02T23:42:40.927Z,99.90
2023-05-02T23:45:11.596Z,99.90
2023-05-02T23:47:39.662Z,99.90
2023-05-02T23:50:08.908Z,99.90
2023-05-02T23:52:36.972Z,99.90
2023-05-02T23:55:10.149Z,99.90
2023-05-02T23:57:38.218Z,99.90
